Watkins, Iowa
Current Conditions -  °F | °C
As of 3:52 PM on Thursday 27 Nov 2014 (Local Time) from KCID Reporting Station
Clear Clear  
Wind Chill: -2°   Ceiling: Unl
Heat Index: 11°   Visibility: 10mi
Dew Point:   Wind: 9mph
Humidity: 73%   Direction: 290°WNW
Pressure: 30.44"   Gusts: NA
Location:  41.89°N, 91.99°W
Report Text: KCID 272152Z 29008KT 10SM CLR M12/M16 A3044 RMK AO2 SLP323 T11171156
Loading
Personal Weather Stations






























Interactive Weather Map New forecast layout! Learn more

10-Day Weather Forecast

Advertisements
Track Severe Weather on mobile